createdAt,value
2019-04-07T00:00:28.381Z,278.83
2019-04-07T00:01:58.170Z,278.82
2019-04-07T00:03:28.142Z,278.8
2019-04-07T00:05:10.076Z,278.77
2019-04-07T00:06:43.660Z,278.74
2019-04-07T00:08:12.466Z,278.71
2019-04-07T00:09:41.580Z,278.66
2019-04-07T00:11:10.781Z,278.61
2019-04-07T00:12:41.243Z,278.6
2019-04-07T00:14:11.098Z,278.59
2019-04-07T00:15:40.784Z,278.57
2019-04-07T00:17:10.700Z,278.57
2019-04-07T00:18:40.972Z,278.61
2019-04-07T00:20:10.539Z,278.58
2019-04-07T00:21:40.142Z,278.57
2019-04-07T00:23:09.741Z,278.55
2019-04-07T00:24:39.262Z,278.52
2019-04-07T00:26:08.221Z,278.52
2019-04-07T00:27:36.941Z,278.56
2019-04-07T00:29:06.622Z,278.56
2019-04-07T00:30:35.341Z,278.56
2019-04-07T00:32:05.107Z,278.51
2019-04-07T00:33:34.782Z,278.51
2019-04-07T00:35:04.231Z,278.49
2019-04-07T00:36:33.102Z,278.47
2019-04-07T00:38:02.279Z,278.45
2019-04-07T00:39:31.312Z,278.44
2019-04-07T00:41:01.348Z,278.45
2019-04-07T00:42:31.181Z,278.47
2019-04-07T00:44:01.559Z,278.47
2019-04-07T00:45:30.645Z,278.41
2019-04-07T00:47:00.142Z,278.29
2019-04-07T00:48:29.422Z,278.27
2019-04-07T00:49:59.025Z,278.23
2019-04-07T00:51:32.004Z,278.2
2019-04-07T00:53:01.269Z,278.23
2019-04-07T00:54:33.186Z,278.18
2019-04-07T00:56:05.039Z,278.16
2019-04-07T00:57:35.416Z,278.18
2019-04-07T00:59:05.326Z,278.16
2019-04-07T01:00:34.617Z,278.1
2019-04-07T01:02:03.501Z,278.13
2019-04-07T01:03:32.717Z,278.09
2019-04-07T01:05:01.719Z,278.09
2019-04-07T01:06:32.001Z,278.07
2019-04-07T01:08:02.462Z,278
2019-04-07T01:09:31.198Z,277.99
2019-04-07T01:10:59.981Z,278
2019-04-07T01:12:29.297Z,277.96
2019-04-07T01:13:58.216Z,277.93
2019-04-07T01:15:27.223Z,277.94
2019-04-07T01:16:58.459Z,277.94
2019-04-07T01:18:30.424Z,277.92
2019-04-07T01:19:59.745Z,277.9
2019-04-07T01:21:29.158Z,277.9
2019-04-07T01:22:58.062Z,277.87
2019-04-07T01:24:27.743Z,277.84
2019-04-07T01:25:57.422Z,277.85
2019-04-07T01:27:26.800Z,277.84
2019-04-07T01:28:55.823Z,277.76
2019-04-07T01:30:25.160Z,277.77
2019-04-07T01:31:54.759Z,277.81
2019-04-07T01:33:23.648Z,277.79
2019-04-07T01:34:52.459Z,277.78
2019-04-07T01:36:22.584Z,277.75
2019-04-07T01:37:52.306Z,277.7
2019-04-07T01:39:21.856Z,277.69
2019-04-07T01:40:51.941Z,277.7
2019-04-07T01:42:21.355Z,277.69
2019-04-07T01:43:50.221Z,277.66
2019-04-07T01:45:18.939Z,277.65
2019-04-07T01:46:50.744Z,277.65
2019-04-07T01:48:20.254Z,277.68
2019-04-07T01:49:50.217Z,277.7
2019-04-07T01:51:21.094Z,277.7
2019-04-07T01:52:50.325Z,277.7
2019-04-07T01:54:22.967Z,277.69
2019-04-07T01:55:53.679Z,277.67
2019-04-07T01:57:23.561Z,277.62
2019-04-07T01:58:53.566Z,277.6
2019-04-07T02:00:22.644Z,277.61
2019-04-07T02:01:51.750Z,277.62
2019-04-07T02:03:21.823Z,277.62
2019-04-07T02:04:51.291Z,277.6
2019-04-07T02:06:22.123Z,277.58
2019-04-07T02:07:51.263Z,277.59
2019-04-07T02:09:20.141Z,277.61
2019-04-07T02:10:49.628Z,277.53
2019-04-07T02:12:19.663Z,277.43
2019-04-07T02:13:50.456Z,277.33
2019-04-07T02:15:19.261Z,277.27
2019-04-07T02:16:48.976Z,277.25
2019-04-07T02:18:18.704Z,277.25
2019-04-07T02:19:48.217Z,277.24
2019-04-07T02:21:17.379Z,277.24
2019-04-07T02:22:47.041Z,277.25
2019-04-07T02:24:16.475Z,277.28
2019-04-07T02:25:48.051Z,277.27
2019-04-07T02:27:18.061Z,277.27
2019-04-07T02:28:48.395Z,277.26
2019-04-07T02:30:19.733Z,277.3
2019-04-07T02:31:50.081Z,277.3
2019-04-07T02:33:19.823Z,277.26
2019-04-07T02:34:49.131Z,277.2
2019-04-07T02:36:30.374Z,277.15
2019-04-07T02:38:02.255Z,277.12
2019-04-07T02:39:32.651Z,277.12
2019-04-07T02:41:01.858Z,277.1
2019-04-07T02:42:32.196Z,277.1
2019-04-07T02:44:02.782Z,277.05
2019-04-07T02:45:34.366Z,276.98
2019-04-07T02:47:04.795Z,276.94
2019-04-07T02:48:35.099Z,276.94
2019-04-07T02:50:04.710Z,276.92
2019-04-07T02:51:34.700Z,276.88
2019-04-07T02:53:05.477Z,276.91
2019-04-07T02:54:36.005Z,276.91
2019-04-07T02:56:05.413Z,276.86
2019-04-07T02:57:37.084Z,276.84
2019-04-07T02:59:06.381Z,276.82
2019-04-07T03:00:36.034Z,276.88
2019-04-07T03:02:05.839Z,276.88
2019-04-07T03:03:34.781Z,276.83
2019-04-07T03:05:05.244Z,276.8
2019-04-07T03:06:49.503Z,276.79
2019-04-07T03:08:23.758Z,276.79
2019-04-07T03:09:54.728Z,276.76
2019-04-07T03:11:25.185Z,276.76
2019-04-07T03:12:54.823Z,276.72
2019-04-07T03:14:23.584Z,276.66
2019-04-07T03:15:53.344Z,276.63
2019-04-07T03:17:23.335Z,276.63
2019-04-07T03:18:53.109Z,276.61
2019-04-07T03:20:23.827Z,276.59
2019-04-07T03:21:54.241Z,276.56
2019-04-07T03:23:26.423Z,276.55
2019-04-07T03:24:55.265Z,276.55
2019-04-07T03:26:25.766Z,276.53
2019-04-07T03:27:57.292Z,276.54
2019-04-07T03:29:26.895Z,276.53
2019-04-07T03:30:58.998Z,276.53
2019-04-07T03:32:33.832Z,276.49
2019-04-07T03:34:12.271Z,276.46
2019-04-07T03:35:50.812Z,276.43
2019-04-07T03:37:44.072Z,276.43
2019-04-07T03:39:17.668Z,276.41
2019-04-07T03:40:48.196Z,276.41
2019-04-07T03:42:19.508Z,276.38
2019-04-07T03:43:49.490Z,276.35
2019-04-07T03:45:20.708Z,276.33
2019-04-07T03:46:51.186Z,276.29
2019-04-07T03:48:21.138Z,276.25
2019-04-07T03:49:52.993Z,276.23
2019-04-07T03:51:22.442Z,276.26
2019-04-07T03:52:54.446Z,276.25
2019-04-07T03:54:28.362Z,276.25
2019-04-07T03:55:58.466Z,276.24
2019-04-07T03:57:27.932Z,276.2
2019-04-07T03:58:57.846Z,276.21
2019-04-07T04:00:27.523Z,276.24
2019-04-07T04:01:57.499Z,276.2
2019-04-07T04:03:26.400Z,276.16
2019-04-07T04:04:57.412Z,276.09
2019-04-07T04:06:28.174Z,276.07
2019-04-07T04:07:57.764Z,276.09
2019-04-07T04:09:28.174Z,276.06
2019-04-07T04:10:58.222Z,276.08
2019-04-07T04:12:29.899Z,276.08
2019-04-07T04:13:59.825Z,276.07
2019-04-07T04:15:29.803Z,276.06
2019-04-07T04:17:02.067Z,276.05
2019-04-07T04:18:31.424Z,276.01
2019-04-07T04:20:02.461Z,275.97
2019-04-07T04:21:31.261Z,275.93
2019-04-07T04:22:59.980Z,275.9
2019-04-07T04:24:28.860Z,275.89
2019-04-07T04:25:59.027Z,275.91
2019-04-07T04:27:28.859Z,275.88
2019-04-07T04:28:58.243Z,275.92
2019-04-07T04:30:28.620Z,275.93
2019-04-07T04:31:59.595Z,275.91
2019-04-07T04:33:29.388Z,275.88
2019-04-07T04:35:00.731Z,275.83
2019-04-07T04:36:32.299Z,275.77
2019-04-07T04:38:02.021Z,275.75
2019-04-07T04:39:31.507Z,275.73
2019-04-07T04:41:01.033Z,275.72
2019-04-07T04:42:31.899Z,275.7
2019-04-07T04:44:02.148Z,275.71
2019-04-07T04:45:31.697Z,275.71
2019-04-07T04:47:03.422Z,275.7
2019-04-07T04:48:33.914Z,275.72
2019-04-07T04:50:03.734Z,275.74
2019-04-07T04:51:42.485Z,275.74
2019-04-07T04:53:12.222Z,275.78
2019-04-07T04:54:42.123Z,275.79
2019-04-07T04:56:11.031Z,275.82
2019-04-07T04:57:41.261Z,275.83
2019-04-07T04:59:10.061Z,275.82
2019-04-07T05:00:39.101Z,275.82
2019-04-07T05:02:07.851Z,275.88
2019-04-07T05:03:38.305Z,275.9
2019-04-07T05:05:09.358Z,275.87
2019-04-07T05:06:39.741Z,275.88
2019-04-07T05:08:10.524Z,275.87
2019-04-07T05:09:53.223Z,275.89
2019-04-07T05:11:26.219Z,275.91
2019-04-07T05:12:56.017Z,275.93
2019-04-07T05:14:25.751Z,275.95
2019-04-07T05:15:55.181Z,275.95
2019-04-07T05:17:26.109Z,275.95
2019-04-07T05:18:55.823Z,275.95
2019-04-07T05:20:25.168Z,276
2019-04-07T05:21:55.867Z,276.09
2019-04-07T05:23:25.684Z,276.11
2019-04-07T05:24:55.574Z,276.11
2019-04-07T05:26:25.584Z,276.13
2019-04-07T05:27:54.680Z,276.16
2019-04-07T05:29:23.755Z,276.24
2019-04-07T05:30:54.304Z,276.27
2019-04-07T05:32:23.503Z,276.29
2019-04-07T05:33:52.533Z,276.3
2019-04-07T05:35:22.411Z,276.32
2019-04-07T05:36:52.189Z,276.34
2019-04-07T05:38:21.254Z,276.38
2019-04-07T05:39:51.579Z,276.44
2019-04-07T05:41:21.846Z,276.49
2019-04-07T05:42:51.662Z,276.57
2019-04-07T05:44:21.734Z,276.62
2019-04-07T05:45:51.534Z,276.68
2019-04-07T05:47:21.170Z,276.77
2019-04-07T05:48:51.958Z,276.85
2019-04-07T05:50:22.278Z,276.92
2019-04-07T05:51:55.665Z,277.02
2019-04-07T05:53:25.392Z,277.09
2019-04-07T05:54:56.139Z,277.15
2019-04-07T05:56:28.167Z,277.23
2019-04-07T05:57:59.580Z,277.29
2019-04-07T05:59:33.904Z,277.35
2019-04-07T06:01:03.520Z,277.42
2019-04-07T06:02:36.303Z,277.46
2019-04-07T06:04:05.597Z,277.5
2019-04-07T06:05:35.724Z,277.59
2019-04-07T06:07:05.864Z,277.66
2019-04-07T06:08:46.941Z,277.74
2019-04-07T06:10:18.743Z,277.84
2019-04-07T06:11:56.383Z,277.9
2019-04-07T06:13:25.505Z,278.01
2019-04-07T06:14:55.170Z,278.12
2019-04-07T06:16:26.727Z,278.18
2019-04-07T06:18:00.352Z,278.28
2019-04-07T06:19:31.551Z,278.39
2019-04-07T06:21:01.426Z,278.48
2019-04-07T06:22:30.921Z,278.51
2019-04-07T06:24:04.720Z,278.58
2019-04-07T06:25:41.853Z,278.76
2019-04-07T06:27:16.115Z,278.9
2019-04-07T06:28:52.136Z,278.96
2019-04-07T06:30:30.910Z,279.07
2019-04-07T06:32:05.117Z,279.11
2019-04-07T06:33:43.271Z,279.15
2019-04-07T06:35:18.241Z,279.23
2019-04-07T06:36:53.484Z,279.33
2019-04-07T06:38:41.439Z,279.54
2019-04-07T06:40:25.561Z,279.72
2019-04-07T06:41:55.265Z,279.84
2019-04-07T06:43:27.826Z,279.94
2019-04-07T06:44:59.696Z,280
2019-04-07T06:46:33.585Z,280.15
2019-04-07T06:48:06.887Z,280.2
2019-04-07T06:49:42.623Z,280.34
2019-04-07T06:51:17.338Z,280.4
2019-04-07T06:52:47.672Z,280.53
2019-04-07T06:54:20.443Z,280.62
2019-04-07T06:55:51.266Z,280.74
2019-04-07T06:57:20.949Z,280.83
2019-04-07T06:58:50.553Z,280.92
2019-04-07T07:00:22.884Z,281.02
2019-04-07T07:01:57.475Z,281.12
2019-04-07T07:03:29.345Z,281.21
2019-04-07T07:05:03.904Z,281.29
2019-04-07T07:06:34.062Z,281.38
2019-04-07T07:08:05.162Z,281.39
2019-04-07T07:09:35.961Z,281.5
2019-04-07T07:11:09.459Z,281.56
2019-04-07T07:12:45.045Z,281.66
2019-04-07T07:14:24.450Z,281.63
2019-04-07T07:16:17.070Z,281.67
2019-04-07T07:17:48.510Z,281.72
2019-04-07T07:19:25.713Z,281.93
2019-04-07T07:21:01.623Z,282
2019-04-07T07:22:33.714Z,282
2019-04-07T07:24:03.984Z,282.06
2019-04-07T07:25:37.260Z,282.16
2019-04-07T07:27:11.290Z,282.25
2019-04-07T07:28:43.023Z,282.36
2019-04-07T07:30:18.271Z,282.44
2019-04-07T07:31:59.056Z,282.53
2019-04-07T07:33:34.411Z,282.61
2019-04-07T07:35:06.345Z,282.72
2019-04-07T07:36:37.077Z,282.73
2019-04-07T07:38:07.511Z,282.79
2019-04-07T07:39:36.627Z,282.82
2019-04-07T07:41:07.663Z,282.92
2019-04-07T07:42:37.709Z,283
2019-04-07T07:44:09.727Z,283.02
2019-04-07T07:45:42.809Z,283.02
2019-04-07T07:47:20.038Z,283.16
2019-04-07T07:48:54.066Z,283.23
2019-04-07T07:50:30.702Z,283.36
2019-04-07T07:52:01.445Z,283.48
2019-04-07T07:53:33.101Z,283.43
2019-04-07T07:55:05.849Z,283.43
2019-04-07T07:56:35.765Z,283.49
2019-04-07T07:58:06.062Z,283.6
2019-04-07T07:59:40.386Z,283.89
2019-04-07T08:01:12.235Z,283.88
2019-04-07T08:02:48.883Z,283.81
2019-04-07T08:04:26.375Z,283.88
2019-04-07T08:05:57.858Z,284.09
2019-04-07T08:07:28.790Z,284.13
2019-04-07T08:09:08.223Z,284.24
2019-04-07T08:10:51.702Z,284.46
2019-04-07T08:12:32.309Z,284.59
2019-04-07T08:14:04.905Z,284.69
2019-04-07T08:15:38.145Z,284.73
2019-04-07T08:17:09.276Z,284.82
2019-04-07T08:18:43.755Z,284.87
2019-04-07T08:20:18.547Z,284.94
2019-04-07T08:21:51.839Z,284.99
2019-04-07T08:23:21.972Z,285.04
2019-04-07T08:24:55.516Z,285.11
2019-04-07T08:26:25.344Z,285.15
2019-04-07T08:27:55.326Z,285.24
2019-04-07T08:29:25.780Z,285.26
2019-04-07T08:30:55.681Z,285.36
2019-04-07T08:32:27.575Z,285.47
2019-04-07T08:34:04.938Z,285.58
2019-04-07T08:35:37.988Z,285.64
2019-04-07T08:37:12.503Z,285.68
2019-04-07T08:38:46.625Z,285.76
2019-04-07T08:40:17.026Z,285.85
2019-04-07T08:41:48.207Z,285.93
2019-04-07T08:43:21.127Z,286.02
2019-04-07T08:44:53.506Z,286.03
2019-04-07T08:46:31.052Z,286.07
2019-04-07T08:48:11.422Z,286.12
2019-04-07T08:49:41.659Z,286.16
2019-04-07T08:51:13.651Z,286.2
2019-04-07T08:52:47.676Z,286.29
2019-04-07T08:54:21.536Z,286.39
2019-04-07T08:55:54.595Z,286.43
2019-04-07T08:57:27.326Z,286.51
2019-04-07T08:59:01.742Z,286.6
2019-04-07T09:00:32.142Z,286.62
2019-04-07T09:02:00.943Z,286.59
2019-04-07T09:03:31.257Z,286.65
2019-04-07T09:05:01.284Z,286.84
2019-04-07T09:06:34.143Z,286.93
2019-04-07T09:08:04.965Z,286.99
2019-04-07T09:09:46.494Z,286.97
2019-04-07T09:11:21.581Z,287.02
2019-04-07T09:12:52.384Z,287.17
2019-04-07T09:14:23.653Z,287.2
2019-04-07T09:15:55.385Z,287.19
2019-04-07T09:17:41.888Z,287.27
2019-04-07T09:19:16.466Z,287.23
2019-04-07T09:20:49.451Z,287.2
2019-04-07T09:22:22.100Z,287.25
2019-04-07T09:23:55.137Z,287.37
2019-04-07T09:25:27.237Z,287.45
2019-04-07T09:26:57.807Z,287.47
2019-04-07T09:28:29.646Z,287.27
2019-04-07T09:30:05.479Z,287.16
2019-04-07T09:31:40.915Z,287.33
2019-04-07T09:33:09.828Z,287.23
2019-04-07T09:34:40.176Z,287.24
2019-04-07T09:36:09.196Z,287.4
2019-04-07T09:37:38.891Z,287.41
2019-04-07T09:39:08.961Z,287.57
2019-04-07T09:40:38.276Z,287.68
2019-04-07T09:42:07.771Z,287.84
2019-04-07T09:43:37.121Z,288.01
2019-04-07T09:45:08.946Z,288.1
2019-04-07T09:46:42.929Z,287.94
2019-04-07T09:48:24.320Z,287.94
2019-04-07T09:49:56.574Z,288.04
2019-04-07T09:51:27.355Z,288.3
2019-04-07T09:52:56.152Z,288.47
2019-04-07T09:54:28.153Z,288.61
2019-04-07T09:56:00.832Z,288.57
2019-04-07T09:57:30.310Z,288.43
2019-04-07T09:59:00.292Z,288.31
2019-04-07T10:00:30.941Z,288.39
2019-04-07T10:02:06.226Z,288.53
2019-04-07T10:03:37.873Z,288.59
2019-04-07T10:05:11.099Z,288.64
2019-04-07T10:06:44.233Z,288.61
2019-04-07T10:08:18.341Z,288.56
2019-04-07T10:09:50.119Z,288.59
2019-04-07T10:11:19.777Z,288.69
2019-04-07T10:12:50.036Z,288.84
2019-04-07T10:14:20.650Z,288.9
2019-04-07T10:15:49.594Z,288.89
2019-04-07T10:17:18.324Z,288.92
2019-04-07T10:18:47.919Z,288.9
2019-04-07T10:20:17.895Z,288.9
2019-04-07T10:21:53.681Z,289.02
2019-04-07T10:23:23.139Z,289.02
2019-04-07T10:24:53.579Z,289.07
2019-04-07T10:26:22.959Z,289.06
2019-04-07T10:27:54.439Z,288.95
2019-04-07T10:29:27.571Z,288.8
2019-04-07T10:30:58.552Z,288.77
2019-04-07T10:32:29.837Z,288.74
2019-04-07T10:34:01.806Z,288.86
2019-04-07T10:35:33.490Z,288.81
2019-04-07T10:37:05.103Z,288.69
2019-04-07T10:38:33.918Z,288.62
2019-04-07T10:40:16.662Z,288.61
2019-04-07T10:41:51.438Z,288.63
2019-04-07T10:43:20.158Z,288.66
2019-04-07T10:44:49.256Z,288.7
2019-04-07T10:46:18.641Z,288.68
2019-04-07T10:47:47.520Z,288.75
2019-04-07T10:49:16.964Z,288.96
2019-04-07T10:50:45.844Z,289.01
2019-04-07T10:52:15.744Z,288.91
2019-04-07T10:53:44.950Z,288.91
2019-04-07T10:55:15.241Z,288.93
2019-04-07T10:56:44.867Z,288.99
2019-04-07T10:58:14.172Z,289.09
2019-04-07T10:59:45.400Z,289.16
2019-04-07T11:01:15.554Z,289.28
2019-04-07T11:02:45.908Z,289.54
2019-04-07T11:04:15.671Z,289.61
2019-04-07T11:05:46.151Z,289.64
2019-04-07T11:07:18.285Z,289.63
2019-04-07T11:08:47.824Z,289.52
2019-04-07T11:10:16.880Z,289.46
2019-04-07T11:12:07.026Z,289.63
2019-04-07T11:13:36.137Z,289.66
2019-04-07T11:15:06.061Z,289.58
2019-04-07T11:16:36.573Z,289.55
2019-04-07T11:18:08.732Z,289.49
2019-04-07T11:19:38.378Z,289.52
2019-04-07T11:21:07.259Z,289.56
2019-04-07T11:22:36.959Z,289.6
2019-04-07T11:24:06.486Z,289.52
2019-04-07T11:25:35.341Z,289.45
2019-04-07T11:27:04.895Z,289.47
2019-04-07T11:28:34.139Z,289.61
2019-04-07T11:30:03.830Z,289.86
2019-04-07T11:31:34.117Z,289.83
2019-04-07T11:33:03.977Z,289.77
2019-04-07T11:34:34.297Z,289.69
2019-04-07T11:36:04.619Z,289.67
2019-04-07T11:37:36.456Z,289.64
2019-04-07T11:39:06.975Z,289.67
2019-04-07T11:40:50.994Z,289.74
2019-04-07T11:42:23.002Z,289.77
2019-04-07T11:43:53.305Z,289.78
2019-04-07T11:45:23.663Z,289.85
2019-04-07T11:46:53.419Z,289.83
2019-04-07T11:48:23.139Z,289.77
2019-04-07T11:49:53.941Z,289.8
2019-04-07T11:51:24.538Z,289.91
2019-04-07T11:52:55.084Z,290.03
2019-04-07T11:54:25.340Z,290.15
2019-04-07T11:55:56.436Z,290.2
2019-04-07T11:57:25.852Z,290.42
2019-04-07T11:58:57.303Z,290.42
2019-04-07T12:00:28.069Z,290.57
2019-04-07T12:01:59.761Z,290.48
2019-04-07T12:03:32.779Z,290.37
2019-04-07T12:05:01.503Z,290.35
2019-04-07T12:06:30.539Z,290.27
2019-04-07T12:08:02.220Z,290.19
2019-04-07T12:09:31.102Z,290.19
2019-04-07T12:11:07.980Z,290.22
2019-04-07T12:12:37.325Z,290.46
2019-04-07T12:14:06.367Z,290.54
2019-04-07T12:15:37.348Z,290.49
2019-04-07T12:17:12.508Z,290.39
2019-04-07T12:18:45.917Z,290.35
2019-04-07T12:20:22.711Z,290.3
2019-04-07T12:21:56.227Z,290.21
2019-04-07T12:23:29.186Z,290.19
2019-04-07T12:25:05.676Z,290.23
2019-04-07T12:26:38.588Z,290.55
2019-04-07T12:28:15.851Z,290.93
2019-04-07T12:29:50.504Z,290.88
2019-04-07T12:31:21.269Z,290.72
2019-04-07T12:32:50.783Z,290.68
2019-04-07T12:34:20.466Z,290.85
2019-04-07T12:35:51.556Z,291.04
2019-04-07T12:37:26.214Z,291.18
2019-04-07T12:38:58.305Z,291.07
2019-04-07T12:40:29.095Z,290.85
2019-04-07T12:42:04.369Z,290.65
2019-04-07T12:43:37.828Z,290.45
2019-04-07T12:45:06.867Z,290.41
2019-04-07T12:46:36.650Z,290.42
2019-04-07T12:48:09.157Z,290.58
2019-04-07T12:49:44.560Z,290.76
2019-04-07T12:51:17.562Z,290.67
2019-04-07T12:52:52.940Z,290.63
2019-04-07T12:54:23.378Z,290.53
2019-04-07T12:56:02.445Z,290.48
2019-04-07T12:57:35.291Z,290.61
2019-04-07T12:59:09.425Z,290.77
2019-04-07T13:00:59.174Z,291.06
2019-04-07T13:02:47.448Z,291.33
2019-04-07T13:04:20.056Z,291.39
2019-04-07T13:05:50.889Z,291.12
2019-04-07T13:07:24.141Z,290.9
2019-04-07T13:08:55.900Z,291.2
2019-04-07T13:10:28.039Z,291.53
2019-04-07T13:12:03.278Z,291.71
2019-04-07T13:13:37.715Z,291.75
2019-04-07T13:15:10.890Z,291.55
2019-04-07T13:16:44.226Z,291.49
2019-04-07T13:18:14.701Z,291.45
2019-04-07T13:19:50.569Z,291.56
2019-04-07T13:21:24.893Z,291.58
2019-04-07T13:22:55.081Z,291.41
2019-04-07T13:24:38.907Z,291.26
2019-04-07T13:26:14.246Z,291.26
2019-04-07T13:27:43.986Z,291.23
2019-04-07T13:29:12.976Z,291.14
2019-04-07T13:30:44.437Z,291.14
2019-04-07T13:32:14.235Z,291.27
2019-04-07T13:33:43.182Z,291.27
2019-04-07T13:35:12.002Z,291.43
2019-04-07T13:36:40.941Z,291.4
2019-04-07T13:38:12.127Z,291.23
2019-04-07T13:39:45.155Z,291.35
2019-04-07T13:41:18.566Z,291.55
2019-04-07T13:42:48.384Z,291.54
2019-04-07T13:44:17.981Z,291.52
2019-04-07T13:45:50.622Z,291.54
2019-04-07T13:47:23.913Z,291.56
2019-04-07T13:49:00.087Z,291.64
2019-04-07T13:50:38.235Z,291.65
2019-04-07T13:52:08.624Z,291.44
2019-04-07T13:53:38.466Z,291.42
2019-04-07T13:55:11.957Z,291.32
2019-04-07T13:56:41.871Z,291.2
2019-04-07T13:58:13.943Z,291.13
2019-04-07T13:59:48.632Z,291.23
2019-04-07T14:01:18.457Z,291.67
2019-04-07T14:02:51.743Z,292.06
2019-04-07T14:04:21.682Z,292.18
2019-04-07T14:05:52.258Z,292.03
2019-04-07T14:07:23.669Z,291.87
2019-04-07T14:08:52.383Z,291.7
2019-04-07T14:10:23.101Z,291.49
2019-04-07T14:12:10.425Z,291.34
2019-04-07T14:13:46.890Z,291.36
2019-04-07T14:15:17.502Z,291.79
2019-04-07T14:16:47.546Z,292.08
2019-04-07T14:18:17.346Z,292.3
2019-04-07T14:19:47.624Z,292.41
2019-04-07T14:21:16.799Z,292.27
2019-04-07T14:22:46.567Z,292.25
2019-04-07T14:24:16.541Z,292.29
2019-04-07T14:25:52.604Z,292.01
2019-04-07T14:27:25.159Z,291.69
2019-04-07T14:28:55.103Z,291.49
2019-04-07T14:30:25.269Z,291.47
2019-04-07T14:31:54.221Z,291.38
2019-04-07T14:33:23.965Z,291.37
2019-04-07T14:34:53.824Z,291.38
2019-04-07T14:36:22.546Z,291.46
2019-04-07T14:37:52.698Z,291.38
2019-04-07T14:39:23.038Z,291.35
2019-04-07T14:40:52.200Z,291.67
2019-04-07T14:42:21.236Z,292.09
2019-04-07T14:43:53.023Z,292.36
2019-04-07T14:45:23.198Z,292.65
2019-04-07T14:46:55.576Z,292.69
2019-04-07T14:48:24.698Z,292.63
2019-04-07T14:49:57.234Z,292.75
2019-04-07T14:51:26.066Z,292.87
2019-04-07T14:52:56.772Z,292.76
2019-04-07T14:54:28.159Z,292.34
2019-04-07T14:56:01.739Z,291.97
2019-04-07T14:57:38.986Z,291.75
2019-04-07T14:59:11.694Z,291.58
2019-04-07T15:00:42.830Z,291.55
2019-04-07T15:02:12.746Z,291.5
2019-04-07T15:03:42.818Z,291.43
2019-04-07T15:05:12.707Z,291.8
2019-04-07T15:06:43.773Z,292.14
2019-04-07T15:08:15.183Z,292.09
2019-04-07T15:09:45.841Z,291.92
2019-04-07T15:11:20.303Z,292
2019-04-07T15:12:50.288Z,291.78
2019-04-07T15:14:21.297Z,291.58
2019-04-07T15:15:51.319Z,291.61
2019-04-07T15:17:22.013Z,291.74
2019-04-07T15:18:53.396Z,291.66
2019-04-07T15:20:25.023Z,291.47
2019-04-07T15:22:01.915Z,291.41
2019-04-07T15:23:36.893Z,291.35
2019-04-07T15:25:07.516Z,291.33
2019-04-07T15:26:40.122Z,291.3
2019-04-07T15:28:09.739Z,291.27
2019-04-07T15:29:45.074Z,291.26
2019-04-07T15:31:18.188Z,291.44
2019-04-07T15:32:51.567Z,291.67
2019-04-07T15:34:20.461Z,291.87
2019-04-07T15:35:55.104Z,291.89
2019-04-07T15:37:27.058Z,291.84
2019-04-07T15:39:01.220Z,291.7
2019-04-07T15:40:33.920Z,291.49
2019-04-07T15:42:07.907Z,291.32
2019-04-07T15:43:43.157Z,291.2
2019-04-07T15:45:17.182Z,291.12
2019-04-07T15:46:54.543Z,291.06
2019-04-07T15:48:29.628Z,291.03
2019-04-07T15:50:03.033Z,290.94
2019-04-07T15:51:34.944Z,290.93
2019-04-07T15:53:05.021Z,290.88
2019-04-07T15:54:35.021Z,290.75
2019-04-07T15:56:12.950Z,290.71
2019-04-07T15:57:48.089Z,290.75
2019-04-07T15:59:29.353Z,290.74
2019-04-07T16:01:02.732Z,290.73
2019-04-07T16:02:42.003Z,290.7
2019-04-07T16:04:13.914Z,290.72
2019-04-07T16:05:49.028Z,290.7
2019-04-07T16:07:20.141Z,290.66
2019-04-07T16:08:51.206Z,290.66
2019-04-07T16:10:21.887Z,290.64
2019-04-07T16:11:57.523Z,290.61
2019-04-07T16:13:31.822Z,290.57
2019-04-07T16:15:00.779Z,290.53
2019-04-07T16:16:33.439Z,290.4
2019-04-07T16:18:04.626Z,290.33
2019-04-07T16:19:50.657Z,290.32
2019-04-07T16:21:27.786Z,290.31
2019-04-07T16:22:59.642Z,290.27
2019-04-07T16:24:31.020Z,290.22
2019-04-07T16:26:03.984Z,290.2
2019-04-07T16:27:36.424Z,290.17
2019-04-07T16:29:08.620Z,290.11
2019-04-07T16:31:08.654Z,290.05
2019-04-07T16:32:37.826Z,289.96
2019-04-07T16:34:10.863Z,289.89
2019-04-07T16:35:39.859Z,289.8
2019-04-07T16:37:13.795Z,289.8
2019-04-07T16:38:46.391Z,289.79
2019-04-07T16:40:16.620Z,289.78
2019-04-07T16:41:50.150Z,289.75
2019-04-07T16:43:22.348Z,289.73
2019-04-07T16:44:52.630Z,289.7
2019-04-07T16:46:28.279Z,289.67
2019-04-07T16:47:58.811Z,289.67
2019-04-07T16:49:30.379Z,289.65
2019-04-07T16:51:02.709Z,289.59
2019-04-07T16:52:37.188Z,289.54
2019-04-07T16:54:08.557Z,289.53
2019-04-07T16:55:41.466Z,289.5
2019-04-07T16:57:15.588Z,289.47
2019-04-07T16:58:45.186Z,289.47
2019-04-07T17:00:18.032Z,289.47
2019-04-07T17:01:48.548Z,289.46
2019-04-07T17:03:18.149Z,289.47
2019-04-07T17:04:46.882Z,289.48
2019-04-07T17:06:17.867Z,289.48
2019-04-07T17:07:50.802Z,289.43
2019-04-07T17:09:29.146Z,289.43
2019-04-07T17:10:59.482Z,289.44
2019-04-07T17:12:40.575Z,289.42
2019-04-07T17:14:10.636Z,289.37
2019-04-07T17:15:45.438Z,289.34
2019-04-07T17:17:17.416Z,289.31
2019-04-07T17:18:56.081Z,289.27
2019-04-07T17:20:28.357Z,289.2
2019-04-07T17:22:11.786Z,289.21
2019-04-07T17:23:47.489Z,289.2
2019-04-07T17:25:17.290Z,289.17
2019-04-07T17:26:46.720Z,289.15
2019-04-07T17:28:19.502Z,289.13
2019-04-07T17:29:52.368Z,289.09
2019-04-07T17:31:27.919Z,289.04
2019-04-07T17:33:05.102Z,289.04
2019-04-07T17:34:35.607Z,289
2019-04-07T17:36:05.889Z,288.95
2019-04-07T17:37:35.188Z,288.91
2019-04-07T17:39:09.663Z,288.88
2019-04-07T17:40:38.763Z,288.88
2019-04-07T17:42:10.802Z,288.88
2019-04-07T17:43:56.654Z,288.81
2019-04-07T17:45:30.840Z,288.77
2019-04-07T17:47:04.131Z,288.74
2019-04-07T17:48:49.377Z,288.72
2019-04-07T17:50:40.810Z,288.7
2019-04-07T17:52:15.344Z,288.71
2019-04-07T17:53:46.518Z,288.68
2019-04-07T17:55:16.395Z,288.63
2019-04-07T17:56:47.572Z,288.59
2019-04-07T17:58:17.227Z,288.56
2019-04-07T17:59:50.382Z,288.52
2019-04-07T18:01:23.439Z,288.47
2019-04-07T18:03:05.132Z,288.44
2019-04-07T18:04:42.986Z,288.4
2019-04-07T18:06:23.980Z,288.38
2019-04-07T18:07:54.860Z,288.33
2019-04-07T18:09:27.262Z,288.28
2019-04-07T18:10:59.325Z,288.25
2019-04-07T18:12:30.408Z,288.21
2019-04-07T18:14:03.724Z,288.17
2019-04-07T18:15:36.198Z,288.13
2019-04-07T18:17:08.545Z,288.09
2019-04-07T18:18:37.792Z,288.03
2019-04-07T18:20:12.955Z,287.97
2019-04-07T18:21:48.926Z,287.93
2019-04-07T18:23:24.026Z,287.88
2019-04-07T18:24:53.988Z,287.86
2019-04-07T18:26:23.741Z,287.82
2019-04-07T18:27:54.163Z,287.78
2019-04-07T18:29:28.561Z,287.77
2019-04-07T18:31:04.265Z,287.75
2019-04-07T18:32:37.369Z,287.74
2019-04-07T18:34:15.361Z,287.69
2019-04-07T18:35:44.997Z,287.65
2019-04-07T18:37:16.879Z,287.62
2019-04-07T18:38:51.488Z,287.62
2019-04-07T18:40:21.079Z,287.59
2019-04-07T18:41:51.418Z,287.44
2019-04-07T18:43:24.565Z,287.31
2019-04-07T18:44:55.302Z,287.21
2019-04-07T18:46:24.811Z,287.1
2019-04-07T18:47:59.278Z,286.99
2019-04-07T18:49:29.465Z,286.99
2019-04-07T18:51:02.959Z,287.01
2019-04-07T18:52:33.903Z,286.88
2019-04-07T18:54:09.343Z,286.84
2019-04-07T18:55:45.187Z,286.66
2019-04-07T18:57:16.622Z,286.59
2019-04-07T18:58:51.479Z,286.53
2019-04-07T19:00:21.980Z,286.47
2019-04-07T19:01:51.049Z,286.4
2019-04-07T19:03:24.382Z,286.29
2019-04-07T19:04:58.067Z,286.22
2019-04-07T19:06:31.252Z,286.2
2019-04-07T19:08:01.101Z,286.15
2019-04-07T19:09:34.320Z,286.23
2019-04-07T19:11:18.025Z,286.12
2019-04-07T19:13:04.436Z,286.08